sensor_id;sensor_type;location;lat;lon;timestamp;P1;durP1;ratioP1;P2;durP2;ratioP2
23410;SDS011;11878;51.774;7.220;2022-12-07T00:02:12;10.80;;;7.57;;
23410;SDS011;11878;51.774;7.220;2022-12-07T00:05:13;14.83;;;8.40;;
23410;SDS011;11878;51.774;7.220;2022-12-07T00:08:15;12.30;;;8.03;;
23410;SDS011;11878;51.774;7.220;2022-12-07T00:11:18;11.87;;;7.60;;
23410;SDS011;11878;51.774;7.220;2022-12-07T00:14:21;11.73;;;7.80;;
23410;SDS011;11878;51.774;7.220;2022-12-07T00:17:23;12.70;;;8.13;;
23410;SDS011;11878;51.774;7.220;2022-12-07T00:20:25;10.93;;;7.43;;
23410;SDS011;11878;51.774;7.220;2022-12-07T00:23:26;15.73;;;7.90;;
23410;SDS011;11878;51.774;7.220;2022-12-07T00:26:36;14.87;;;8.20;;
23410;SDS011;11878;51.774;7.220;2022-12-07T00:29:39;12.80;;;7.23;;
23410;SDS011;11878;51.774;7.220;2022-12-07T00:32:41;11.63;;;8.00;;
23410;SDS011;11878;51.774;7.220;2022-12-07T00:35:43;12.43;;;7.93;;
23410;SDS011;11878;51.774;7.220;2022-12-07T00:38:44;12.40;;;7.73;;
23410;SDS011;11878;51.774;7.220;2022-12-07T00:41:46;12.43;;;7.17;;
23410;SDS011;11878;51.774;7.220;2022-12-07T00:44:48;12.87;;;7.93;;
23410;SDS011;11878;51.774;7.220;2022-12-07T00:47:50;16.30;;;8.37;;
23410;SDS011;11878;51.774;7.220;2022-12-07T00:50:51;16.07;;;8.23;;
23410;SDS011;11878;51.774;7.220;2022-12-07T00:53:54;12.27;;;7.60;;
23410;SDS011;11878;51.774;7.220;2022-12-07T00:56:55;15.37;;;8.27;;
23410;SDS011;11878;51.774;7.220;2022-12-07T00:59:57;14.00;;;7.90;;
23410;SDS011;11878;51.774;7.220;2022-12-07T01:02:59;15.13;;;8.47;;
23410;SDS011;11878;51.774;7.220;2022-12-07T01:06:01;12.83;;;7.37;;
23410;SDS011;11878;51.774;7.220;2022-12-07T01:09:03;14.60;;;8.13;;
23410;SDS011;11878;51.774;7.220;2022-12-07T01:12:06;14.97;;;8.17;;
23410;SDS011;11878;51.774;7.220;2022-12-07T01:15:07;14.07;;;7.10;;
23410;SDS011;11878;51.774;7.220;2022-12-07T01:18:10;11.80;;;7.83;;
23410;SDS011;11878;51.774;7.220;2022-12-07T01:21:13;14.63;;;9.23;;
23410;SDS011;11878;51.774;7.220;2022-12-07T01:24:17;11.07;;;6.97;;
23410;SDS011;11878;51.774;7.220;2022-12-07T01:27:19;16.43;;;9.10;;
23410;SDS011;11878;51.774;7.220;2022-12-07T01:30:21;15.00;;;8.60;;
23410;SDS011;11878;51.774;7.220;2022-12-07T01:33:22;11.90;;;6.77;;
23410;SDS011;11878;51.774;7.220;2022-12-07T01:36:25;14.17;;;6.83;;
23410;SDS011;11878;51.774;7.220;2022-12-07T01:39:29;11.30;;;7.40;;
23410;SDS011;11878;51.774;7.220;2022-12-07T01:42:30;11.83;;;7.47;;
23410;SDS011;11878;51.774;7.220;2022-12-07T01:45:41;13.87;;;6.87;;
23410;SDS011;11878;51.774;7.220;2022-12-07T01:48:43;12.77;;;7.57;;
23410;SDS011;11878;51.774;7.220;2022-12-07T01:51:45;11.27;;;6.83;;
23410;SDS011;11878;51.774;7.220;2022-12-07T01:54:49;14.33;;;8.87;;
23410;SDS011;11878;51.774;7.220;2022-12-07T01:57:54;12.30;;;6.80;;
23410;SDS011;11878;51.774;7.220;2022-12-07T02:00:57;12.30;;;7.57;;
23410;SDS011;11878;51.774;7.220;2022-12-07T02:03:59;13.67;;;6.53;;
23410;SDS011;11878;51.774;7.220;2022-12-07T02:07:02;15.00;;;7.13;;
23410;SDS011;11878;51.774;7.220;2022-12-07T02:13:38;10.00;;;6.50;;
23410;SDS011;11878;51.774;7.220;2022-12-07T02:16:44;13.57;;;7.37;;
23410;SDS011;11878;51.774;7.220;2022-12-07T02:20:03;16.37;;;6.83;;
23410;SDS011;11878;51.774;7.220;2022-12-07T02:30:42;14.27;;;7.37;;
23410;SDS011;11878;51.774;7.220;2022-12-07T02:33:53;13.50;;;6.53;;
23410;SDS011;11878;51.774;7.220;2022-12-07T02:37:06;15.40;;;6.97;;
23410;SDS011;11878;51.774;7.220;2022-12-07T02:43:44;9.40;;;6.10;;
23410;SDS011;11878;51.774;7.220;2022-12-07T02:46:59;10.30;;;6.50;;
23410;SDS011;11878;51.774;7.220;2022-12-07T02:50:05;10.93;;;6.97;;
23410;SDS011;11878;51.774;7.220;2022-12-07T02:53:27;12.43;;;6.00;;
23410;SDS011;11878;51.774;7.220;2022-12-07T03:03:09;11.40;;;5.77;;
23410;SDS011;11878;51.774;7.220;2022-12-07T03:06:18;10.60;;;6.40;;
23410;SDS011;11878;51.774;7.220;2022-12-07T03:09:51;19.40;;;7.13;;
23410;SDS011;11878;51.774;7.220;2022-12-07T03:16:28;8.27;;;5.47;;
23410;SDS011;11878;51.774;7.220;2022-12-07T03:19:36;9.50;;;5.90;;
23410;SDS011;11878;51.774;7.220;2022-12-07T03:22:41;10.40;;;6.00;;
23410;SDS011;11878;51.774;7.220;2022-12-07T03:25:49;12.23;;;5.87;;
23410;SDS011;11878;51.774;7.220;2022-12-07T03:29:02;12.70;;;6.03;;
23410;SDS011;11878;51.774;7.220;2022-12-07T03:32:14;8.53;;;5.47;;
23410;SDS011;11878;51.774;7.220;2022-12-07T03:35:25;10.73;;;5.50;;
23410;SDS011;11878;51.774;7.220;2022-12-07T03:38:48;11.40;;;5.80;;
23410;SDS011;11878;51.774;7.220;2022-12-07T03:41:54;13.03;;;6.00;;
23410;SDS011;11878;51.774;7.220;2022-12-07T03:44:57;7.50;;;4.63;;
23410;SDS011;11878;51.774;7.220;2022-12-07T03:48:03;10.53;;;5.60;;
23410;SDS011;11878;51.774;7.220;2022-12-07T03:51:20;10.33;;;5.73;;
23410;SDS011;11878;51.774;7.220;2022-12-07T03:54:29;7.83;;;4.90;;
23410;SDS011;11878;51.774;7.220;2022-12-07T03:57:37;10.37;;;4.73;;
23410;SDS011;11878;51.774;7.220;2022-12-07T04:00:42;11.07;;;4.67;;
23410;SDS011;11878;51.774;7.220;2022-12-07T04:03:44;9.07;;;5.10;;
23410;SDS011;11878;51.774;7.220;2022-12-07T04:06:46;9.40;;;3.87;;
23410;SDS011;11878;51.774;7.220;2022-12-07T04:09:47;6.47;;;4.40;;
23410;SDS011;11878;51.774;7.220;2022-12-07T04:12:49;9.43;;;4.73;;
23410;SDS011;11878;51.774;7.220;2022-12-07T04:15:51;7.03;;;4.50;;
23410;SDS011;11878;51.774;7.220;2022-12-07T04:18:52;6.77;;;3.87;;
23410;SDS011;11878;51.774;7.220;2022-12-07T04:21:54;9.60;;;5.10;;
23410;SDS011;11878;51.774;7.220;2022-12-07T04:24:57;9.93;;;4.97;;
23410;SDS011;11878;51.774;7.220;2022-12-07T04:27:58;8.30;;;4.47;;
23410;SDS011;11878;51.774;7.220;2022-12-07T04:31:00;11.03;;;4.03;;
23410;SDS011;11878;51.774;7.220;2022-12-07T04:34:02;11.90;;;5.00;;
23410;SDS011;11878;51.774;7.220;2022-12-07T04:37:05;7.67;;;4.20;;
23410;SDS011;11878;51.774;7.220;2022-12-07T04:40:07;8.63;;;4.40;;
23410;SDS011;11878;51.774;7.220;2022-12-07T04:43:12;7.50;;;3.47;;
23410;SDS011;11878;51.774;7.220;2022-12-07T04:46:13;11.63;;;3.70;;
23410;SDS011;11878;51.774;7.220;2022-12-07T04:49:15;15.27;;;3.73;;
23410;SDS011;11878;51.774;7.220;2022-12-07T04:52:17;7.47;;;4.37;;
23410;SDS011;11878;51.774;7.220;2022-12-07T04:55:19;8.20;;;4.03;;
23410;SDS011;11878;51.774;7.220;2022-12-07T04:58:21;8.63;;;4.07;;
23410;SDS011;11878;51.774;7.220;2022-12-07T05:01:22;8.57;;;3.63;;
23410;SDS011;11878;51.774;7.220;2022-12-07T05:04:25;7.03;;;3.63;;
23410;SDS011;11878;51.774;7.220;2022-12-07T05:07:26;6.37;;;3.33;;
23410;SDS011;11878;51.774;7.220;2022-12-07T05:10:28;10.83;;;3.93;;
23410;SDS011;11878;51.774;7.220;2022-12-07T05:13:30;10.70;;;3.73;;
23410;SDS011;11878;51.774;7.220;2022-12-07T05:16:33;10.37;;;4.43;;
23410;SDS011;11878;51.774;7.220;2022-12-07T05:19:35;16.83;;;3.97;;
23410;SDS011;11878;51.774;7.220;2022-12-07T05:22:36;10.63;;;3.70;;
23410;SDS011;11878;51.774;7.220;2022-12-07T05:25:38;13.63;;;4.40;;
23410;SDS011;11878;51.774;7.220;2022-12-07T05:28:40;7.13;;;3.03;;
23410;SDS011;11878;51.774;7.220;2022-12-07T05:31:42;7.10;;;3.70;;
23410;SDS011;11878;51.774;7.220;2022-12-07T05:34:45;9.50;;;3.70;;
23410;SDS011;11878;51.774;7.220;2022-12-07T05:37:47;11.40;;;3.93;;
23410;SDS011;11878;51.774;7.220;2022-12-07T05:40:48;8.57;;;4.23;;
23410;SDS011;11878;51.774;7.220;2022-12-07T05:43:50;4.90;;;3.20;;
23410;SDS011;11878;51.774;7.220;2022-12-07T05:46:52;10.17;;;3.70;;
23410;SDS011;11878;51.774;7.220;2022-12-07T05:49:53;8.90;;;3.33;;
23410;SDS011;11878;51.774;7.220;2022-12-07T05:52:55;8.73;;;3.43;;
23410;SDS011;11878;51.774;7.220;2022-12-07T05:56:21;5.13;;;2.77;;
23410;SDS011;11878;51.774;7.220;2022-12-07T05:59:23;6.77;;;2.57;;
23410;SDS011;11878;51.774;7.220;2022-12-07T06:02:35;8.30;;;2.97;;
23410;SDS011;11878;51.774;7.220;2022-12-07T06:09:20;4.10;;;2.50;;
23410;SDS011;11878;51.774;7.220;2022-12-07T06:12:23;5.90;;;2.77;;
23410;SDS011;11878;51.774;7.220;2022-12-07T06:15:36;6.53;;;2.73;;
23410;SDS011;11878;51.774;7.220;2022-12-07T06:18:38;12.43;;;2.90;;
23410;SDS011;11878;51.774;7.220;2022-12-07T06:21:40;12.17;;;5.33;;
23410;SDS011;11878;51.774;7.220;2022-12-07T06:24:42;9.23;;;3.67;;
23410;SDS011;11878;51.774;7.220;2022-12-07T06:27:44;11.43;;;5.10;;
23410;SDS011;11878;51.774;7.220;2022-12-07T06:30:46;7.53;;;3.30;;
23410;SDS011;11878;51.774;7.220;2022-12-07T06:33:48;5.63;;;3.03;;
23410;SDS011;11878;51.774;7.220;2022-12-07T06:36:50;9.10;;;2.60;;
23410;SDS011;11878;51.774;7.220;2022-12-07T06:39:54;5.47;;;2.00;;
23410;SDS011;11878;51.774;7.220;2022-12-07T06:42:56;4.53;;;2.77;;
23410;SDS011;11878;51.774;7.220;2022-12-07T06:45:57;12.80;;;3.20;;
23410;SDS011;11878;51.774;7.220;2022-12-07T06:48:59;8.17;;;2.80;;
23410;SDS011;11878;51.774;7.220;2022-12-07T06:52:01;5.20;;;2.70;;
23410;SDS011;11878;51.774;7.220;2022-12-07T06:55:02;4.70;;;2.60;;
23410;SDS011;11878;51.774;7.220;2022-12-07T06:58:04;8.33;;;2.83;;
23410;SDS011;11878;51.774;7.220;2022-12-07T07:01:13;7.03;;;2.20;;
23410;SDS011;11878;51.774;7.220;2022-12-07T07:04:16;4.20;;;2.63;;
23410;SDS011;11878;51.774;7.220;2022-12-07T07:07:18;4.17;;;1.87;;
23410;SDS011;11878;51.774;7.220;2022-12-07T07:10:19;7.33;;;2.33;;
23410;SDS011;11878;51.774;7.220;2022-12-07T07:13:21;7.73;;;2.33;;
23410;SDS011;11878;51.774;7.220;2022-12-07T07:16:23;7.40;;;2.57;;
23410;SDS011;11878;51.774;7.220;2022-12-07T07:19:25;3.87;;;2.27;;
23410;SDS011;11878;51.774;7.220;2022-12-07T07:22:27;9.60;;;2.67;;
23410;SDS011;11878;51.774;7.220;2022-12-07T07:25:28;4.67;;;3.10;;
23410;SDS011;11878;51.774;7.220;2022-12-07T07:28:30;5.87;;;2.30;;
23410;SDS011;11878;51.774;7.220;2022-12-07T07:31:32;8.90;;;2.33;;
23410;SDS011;11878;51.774;7.220;2022-12-07T07:34:36;3.40;;;1.97;;
23410;SDS011;11878;51.774;7.220;2022-12-07T07:37:38;8.13;;;1.73;;
23410;SDS011;11878;51.774;7.220;2022-12-07T07:40:39;8.23;;;2.47;;
23410;SDS011;11878;51.774;7.220;2022-12-07T07:43:41;8.47;;;3.40;;
23410;SDS011;11878;51.774;7.220;2022-12-07T07:46:43;5.70;;;2.60;;
23410;SDS011;11878;51.774;7.220;2022-12-07T07:49:44;6.00;;;2.67;;
23410;SDS011;11878;51.774;7.220;2022-12-07T07:52:48;8.20;;;2.83;;
23410;SDS011;11878;51.774;7.220;2022-12-07T07:55:53;8.10;;;3.47;;
23410;SDS011;11878;51.774;7.220;2022-12-07T07:58:55;4.97;;;2.93;;
23410;SDS011;11878;51.774;7.220;2022-12-07T08:01:57;9.50;;;3.43;;
23410;SDS011;11878;51.774;7.220;2022-12-07T08:04:59;10.60;;;3.80;;
23410;SDS011;11878;51.774;7.220;2022-12-07T08:08:00;7.70;;;4.00;;
23410;SDS011;11878;51.774;7.220;2022-12-07T08:11:06;7.00;;;3.23;;
23410;SDS011;11878;51.774;7.220;2022-12-07T08:14:09;5.13;;;2.83;;
23410;SDS011;11878;51.774;7.220;2022-12-07T08:17:12;13.37;;;3.70;;
23410;SDS011;11878;51.774;7.220;2022-12-07T08:20:13;10.13;;;2.83;;
23410;SDS011;11878;51.774;7.220;2022-12-07T08:23:15;4.10;;;2.40;;
23410;SDS011;11878;51.774;7.220;2022-12-07T08:26:17;10.57;;;3.30;;
23410;SDS011;11878;51.774;7.220;2022-12-07T08:29:19;8.90;;;2.77;;
23410;SDS011;11878;51.774;7.220;2022-12-07T08:32:20;14.17;;;2.93;;
23410;SDS011;11878;51.774;7.220;2022-12-07T08:35:22;8.30;;;3.73;;
23410;SDS011;11878;51.774;7.220;2022-12-07T08:38:24;8.53;;;3.73;;
23410;SDS011;11878;51.774;7.220;2022-12-07T08:41:32;6.10;;;3.43;;
23410;SDS011;11878;51.774;7.220;2022-12-07T08:44:34;10.93;;;3.90;;
23410;SDS011;11878;51.774;7.220;2022-12-07T08:47:36;6.67;;;3.57;;
23410;SDS011;11878;51.774;7.220;2022-12-07T08:50:41;6.70;;;2.97;;
23410;SDS011;11878;51.774;7.220;2022-12-07T08:53:50;7.90;;;3.37;;
23410;SDS011;11878;51.774;7.220;2022-12-07T08:56:53;12.10;;;3.20;;
23410;SDS011;11878;51.774;7.220;2022-12-07T09:00:00;7.73;;;3.37;;
23410;SDS011;11878;51.774;7.220;2022-12-07T09:03:02;8.33;;;3.57;;
23410;SDS011;11878;51.774;7.220;2022-12-07T09:06:04;14.13;;;4.90;;
23410;SDS011;11878;51.774;7.220;2022-12-07T09:09:06;6.93;;;2.93;;
23410;SDS011;11878;51.774;7.220;2022-12-07T09:12:09;6.97;;;2.53;;
23410;SDS011;11878;51.774;7.220;2022-12-07T09:15:11;5.70;;;3.17;;
23410;SDS011;11878;51.774;7.220;2022-12-07T09:18:13;6.13;;;2.73;;
23410;SDS011;11878;51.774;7.220;2022-12-07T09:21:16;11.20;;;3.23;;
23410;SDS011;11878;51.774;7.220;2022-12-07T09:24:18;7.80;;;2.77;;
23410;SDS011;11878;51.774;7.220;2022-12-07T09:27:19;7.27;;;2.70;;
23410;SDS011;11878;51.774;7.220;2022-12-07T09:30:21;5.47;;;2.90;;
23410;SDS011;11878;51.774;7.220;2022-12-07T09:33:23;7.17;;;3.27;;
23410;SDS011;11878;51.774;7.220;2022-12-07T09:36:25;7.70;;;2.93;;
23410;SDS011;11878;51.774;7.220;2022-12-07T09:39:28;8.00;;;3.47;;
23410;SDS011;11878;51.774;7.220;2022-12-07T09:42:34;8.33;;;2.73;;
23410;SDS011;11878;51.774;7.220;2022-12-07T09:45:41;7.13;;;2.97;;
23410;SDS011;11878;51.774;7.220;2022-12-07T09:48:49;6.13;;;2.23;;
23410;SDS011;11878;51.774;7.220;2022-12-07T09:52:03;11.27;;;2.40;;
23410;SDS011;11878;51.774;7.220;2022-12-07T09:55:12;6.70;;;2.93;;
23410;SDS011;11878;51.774;7.220;2022-12-07T09:58:20;7.03;;;3.43;;
23410;SDS011;11878;51.774;7.220;2022-12-07T10:01:24;8.57;;;2.97;;
23410;SDS011;11878;51.774;7.220;2022-12-07T10:04:29;8.60;;;2.80;;
23410;SDS011;11878;51.774;7.220;2022-12-07T10:07:30;8.57;;;2.53;;
23410;SDS011;11878;51.774;7.220;2022-12-07T10:10:33;8.83;;;3.40;;
23410;SDS011;11878;51.774;7.220;2022-12-07T10:13:41;4.83;;;2.57;;
23410;SDS011;11878;51.774;7.220;2022-12-07T10:16:47;5.80;;;2.40;;
23410;SDS011;11878;51.774;7.220;2022-12-07T10:19:49;5.90;;;1.97;;
23410;SDS011;11878;51.774;7.220;2022-12-07T10:22:58;5.50;;;1.70;;
23410;SDS011;11878;51.774;7.220;2022-12-07T10:29:50;7.83;;;2.70;;
23410;SDS011;11878;51.774;7.220;2022-12-07T10:32:53;10.33;;;1.70;;
23410;SDS011;11878;51.774;7.220;2022-12-07T10:35:55;4.50;;;1.63;;
23410;SDS011;11878;51.774;7.220;2022-12-07T10:42:02;6.20;;;1.90;;
23410;SDS011;11878;51.774;7.220;2022-12-07T10:45:14;7.33;;;1.20;;
23410;SDS011;11878;51.774;7.220;2022-12-07T10:51:43;4.43;;;1.43;;
23410;SDS011;11878;51.774;7.220;2022-12-07T10:55:26;3.90;;;1.30;;
23410;SDS011;11878;51.774;7.220;2022-12-07T11:07:59;10.97;;;1.87;;
23410;SDS011;11878;51.774;7.220;2022-12-07T11:11:42;2.93;;;1.37;;
23410;SDS011;11878;51.774;7.220;2022-12-07T11:21:27;4.60;;;1.10;;
23410;SDS011;11878;51.774;7.220;2022-12-07T11:28:17;3.73;;;1.10;;
23410;SDS011;11878;51.774;7.220;2022-12-07T11:31:37;5.00;;;1.27;;
23410;SDS011;11878;51.774;7.220;2022-12-07T11:38:32;2.80;;;0.73;;
23410;SDS011;11878;51.774;7.220;2022-12-07T11:41:45;5.83;;;1.13;;
23410;SDS011;11878;51.774;7.220;2022-12-07T11:44:59;4.27;;;0.83;;
23410;SDS011;11878;51.774;7.220;2022-12-07T11:48:15;2.60;;;1.73;;
23410;SDS011;11878;51.774;7.220;2022-12-07T11:51:23;4.50;;;0.90;;
23410;SDS011;11878;51.774;7.220;2022-12-07T11:54:35;4.43;;;1.07;;
23410;SDS011;11878;51.774;7.220;2022-12-07T11:57:44;4.70;;;1.23;;
23410;SDS011;11878;51.774;7.220;2022-12-07T12:00:52;5.63;;;1.00;;
23410;SDS011;11878;51.774;7.220;2022-12-07T12:04:29;3.60;;;1.30;;
23410;SDS011;11878;51.774;7.220;2022-12-07T12:07:32;7.20;;;1.20;;
23410;SDS011;11878;51.774;7.220;2022-12-07T12:10:56;7.37;;;1.10;;
23410;SDS011;11878;51.774;7.220;2022-12-07T12:21:17;6.87;;;1.37;;
23410;SDS011;11878;51.774;7.220;2022-12-07T12:24:27;3.43;;;0.90;;
23410;SDS011;11878;51.774;7.220;2022-12-07T12:27:36;5.37;;;0.80;;
23410;SDS011;11878;51.774;7.220;2022-12-07T12:30:40;3.43;;;0.97;;
23410;SDS011;11878;51.774;7.220;2022-12-07T12:33:51;4.87;;;0.87;;
23410;SDS011;11878;51.774;7.220;2022-12-07T12:36:55;3.30;;;0.73;;
23410;SDS011;11878;51.774;7.220;2022-12-07T12:47:00;2.53;;;0.73;;
23410;SDS011;11878;51.774;7.220;2022-12-07T12:50:15;6.80;;;1.00;;
23410;SDS011;11878;51.774;7.220;2022-12-07T12:53:27;5.00;;;1.20;;
23410;SDS011;11878;51.774;7.220;2022-12-07T12:56:33;7.50;;;0.90;;
23410;SDS011;11878;51.774;7.220;2022-12-07T13:02:55;4.73;;;1.07;;
23410;SDS011;11878;51.774;7.220;2022-12-07T13:09:24;5.57;;;1.87;;
23410;SDS011;11878;51.774;7.220;2022-12-07T13:12:29;9.33;;;1.33;;
23410;SDS011;11878;51.774;7.220;2022-12-07T13:15:34;6.70;;;1.17;;
23410;SDS011;11878;51.774;7.220;2022-12-07T13:18:40;7.70;;;1.57;;
23410;SDS011;11878;51.774;7.220;2022-12-07T13:21:43;10.23;;;1.37;;
23410;SDS011;11878;51.774;7.220;2022-12-07T13:24:45;5.30;;;1.43;;
23410;SDS011;11878;51.774;7.220;2022-12-07T13:27:53;9.77;;;1.07;;
23410;SDS011;11878;51.774;7.220;2022-12-07T13:34:29;5.67;;;1.23;;
23410;SDS011;11878;51.774;7.220;2022-12-07T13:37:33;10.03;;;1.63;;
23410;SDS011;11878;51.774;7.220;2022-12-07T13:40:39;9.93;;;1.67;;
23410;SDS011;11878;51.774;7.220;2022-12-07T13:44:00;5.67;;;1.70;;
23410;SDS011;11878;51.774;7.220;2022-12-07T13:47:15;2.33;;;1.27;;
23410;SDS011;11878;51.774;7.220;2022-12-07T13:50:29;2.43;;;0.90;;
23410;SDS011;11878;51.774;7.220;2022-12-07T13:53:32;7.50;;;0.80;;
23410;SDS011;11878;51.774;7.220;2022-12-07T13:56:35;6.27;;;1.87;;
23410;SDS011;11878;51.774;7.220;2022-12-07T13:59:37;5.20;;;0.97;;
23410;SDS011;11878;51.774;7.220;2022-12-07T14:02:53;3.27;;;0.80;;
23410;SDS011;11878;51.774;7.220;2022-12-07T14:09:28;5.37;;;1.20;;
23410;SDS011;11878;51.774;7.220;2022-12-07T14:12:31;5.93;;;0.90;;
23410;SDS011;11878;51.774;7.220;2022-12-07T14:15:36;3.63;;;0.60;;
23410;SDS011;11878;51.774;7.220;2022-12-07T14:18:39;2.67;;;0.90;;
23410;SDS011;11878;51.774;7.220;2022-12-07T14:21:41;5.30;;;1.10;;
23410;SDS011;11878;51.774;7.220;2022-12-07T14:24:43;1.80;;;0.67;;
23410;SDS011;11878;51.774;7.220;2022-12-07T14:27:49;3.20;;;0.90;;
23410;SDS011;11878;51.774;7.220;2022-12-07T14:30:57;1.17;;;0.60;;
23410;SDS011;11878;51.774;7.220;2022-12-07T14:33:59;2.90;;;1.37;;
23410;SDS011;11878;51.774;7.220;2022-12-07T14:37:01;6.63;;;1.53;;
23410;SDS011;11878;51.774;7.220;2022-12-07T14:40:03;2.43;;;1.40;;
23410;SDS011;11878;51.774;7.220;2022-12-07T14:43:09;3.70;;;1.10;;
23410;SDS011;11878;51.774;7.220;2022-12-07T14:46:13;3.47;;;1.50;;
23410;SDS011;11878;51.774;7.220;2022-12-07T14:49:15;8.93;;;1.60;;
23410;SDS011;11878;51.774;7.220;2022-12-07T14:52:33;4.00;;;1.40;;
23410;SDS011;11878;51.774;7.220;2022-12-07T14:55:54;6.97;;;0.87;;
23410;SDS011;11878;51.774;7.220;2022-12-07T14:58:56;3.83;;;0.70;;
23410;SDS011;11878;51.774;7.220;2022-12-07T15:01:58;6.60;;;1.00;;
23410;SDS011;11878;51.774;7.220;2022-12-07T15:05:00;5.03;;;1.10;;
23410;SDS011;11878;51.774;7.220;2022-12-07T15:08:02;8.67;;;1.37;;
23410;SDS011;11878;51.774;7.220;2022-12-07T15:11:04;20.13;;;6.23;;
23410;SDS011;11878;51.774;7.220;2022-12-07T15:14:06;15.23;;;7.33;;
23410;SDS011;11878;51.774;7.220;2022-12-07T15:17:11;5.93;;;2.33;;
23410;SDS011;11878;51.774;7.220;2022-12-07T15:20:28;5.33;;;3.03;;
23410;SDS011;11878;51.774;7.220;2022-12-07T15:23:29;5.77;;;2.33;;
23410;SDS011;11878;51.774;7.220;2022-12-07T15:26:32;3.73;;;1.67;;
23410;SDS011;11878;51.774;7.220;2022-12-07T15:29:34;6.87;;;2.87;;
23410;SDS011;11878;51.774;7.220;2022-12-07T15:32:35;8.37;;;4.83;;
23410;SDS011;11878;51.774;7.220;2022-12-07T15:35:40;6.07;;;2.93;;
23410;SDS011;11878;51.774;7.220;2022-12-07T15:38:45;4.23;;;1.70;;
23410;SDS011;11878;51.774;7.220;2022-12-07T15:42:07;4.93;;;2.50;;
23410;SDS011;11878;51.774;7.220;2022-12-07T15:45:09;8.83;;;2.53;;
23410;SDS011;11878;51.774;7.220;2022-12-07T15:48:11;5.27;;;1.50;;
23410;SDS011;11878;51.774;7.220;2022-12-07T15:51:29;4.47;;;1.87;;
23410;SDS011;11878;51.774;7.220;2022-12-07T15:54:31;7.83;;;1.50;;
23410;SDS011;11878;51.774;7.220;2022-12-07T15:57:34;3.37;;;1.10;;
23410;SDS011;11878;51.774;7.220;2022-12-07T16:00:38;3.43;;;1.33;;
23410;SDS011;11878;51.774;7.220;2022-12-07T16:03:39;2.63;;;1.10;;
23410;SDS011;11878;51.774;7.220;2022-12-07T16:06:42;8.70;;;1.97;;
23410;SDS011;11878;51.774;7.220;2022-12-07T16:09:44;6.37;;;1.60;;
23410;SDS011;11878;51.774;7.220;2022-12-07T16:12:47;4.87;;;1.03;;
23410;SDS011;11878;51.774;7.220;2022-12-07T16:15:48;6.00;;;1.53;;
23410;SDS011;11878;51.774;7.220;2022-12-07T16:18:50;2.60;;;1.60;;
23410;SDS011;11878;51.774;7.220;2022-12-07T16:21:52;3.70;;;1.27;;
23410;SDS011;11878;51.774;7.220;2022-12-07T16:24:54;10.43;;;2.33;;
23410;SDS011;11878;51.774;7.220;2022-12-07T16:27:55;11.40;;;2.10;;
23410;SDS011;11878;51.774;7.220;2022-12-07T16:31:04;3.73;;;1.57;;
23410;SDS011;11878;51.774;7.220;2022-12-07T16:34:08;3.53;;;1.47;;
23410;SDS011;11878;51.774;7.220;2022-12-07T16:37:10;3.80;;;1.60;;
23410;SDS011;11878;51.774;7.220;2022-12-07T16:40:12;5.47;;;1.73;;
23410;SDS011;11878;51.774;7.220;2022-12-07T16:43:14;6.17;;;2.23;;
23410;SDS011;11878;51.774;7.220;2022-12-07T16:46:16;8.20;;;2.10;;
23410;SDS011;11878;51.774;7.220;2022-12-07T16:49:18;5.73;;;2.17;;
23410;SDS011;11878;51.774;7.220;2022-12-07T16:52:20;11.50;;;2.27;;
23410;SDS011;11878;51.774;7.220;2022-12-07T16:55:22;6.67;;;2.40;;
23410;SDS011;11878;51.774;7.220;2022-12-07T16:58:24;14.37;;;2.30;;
23410;SDS011;11878;51.774;7.220;2022-12-07T17:01:25;5.30;;;1.70;;
23410;SDS011;11878;51.774;7.220;2022-12-07T17:04:30;4.53;;;1.63;;
23410;SDS011;11878;51.774;7.220;2022-12-07T17:07:32;7.80;;;2.10;;
23410;SDS011;11878;51.774;7.220;2022-12-07T17:10:36;10.80;;;1.50;;
23410;SDS011;11878;51.774;7.220;2022-12-07T17:13:39;3.67;;;1.50;;
23410;SDS011;11878;51.774;7.220;2022-12-07T17:16:59;6.43;;;1.90;;
23410;SDS011;11878;51.774;7.220;2022-12-07T17:20:01;4.30;;;1.77;;
23410;SDS011;11878;51.774;7.220;2022-12-07T17:23:04;5.50;;;1.80;;
23410;SDS011;11878;51.774;7.220;2022-12-07T17:26:07;7.00;;;1.57;;
23410;SDS011;11878;51.774;7.220;2022-12-07T17:29:11;9.97;;;1.30;;
23410;SDS011;11878;51.774;7.220;2022-12-07T17:32:14;2.17;;;1.33;;
23410;SDS011;11878;51.774;7.220;2022-12-07T17:35:16;1.80;;;1.30;;
23410;SDS011;11878;51.774;7.220;2022-12-07T17:38:17;4.03;;;1.27;;
23410;SDS011;11878;51.774;7.220;2022-12-07T17:41:20;5.53;;;2.27;;
23410;SDS011;11878;51.774;7.220;2022-12-07T17:44:46;4.87;;;1.43;;
23410;SDS011;11878;51.774;7.220;2022-12-07T17:47:47;3.47;;;1.37;;
23410;SDS011;11878;51.774;7.220;2022-12-07T17:50:49;6.73;;;1.93;;
23410;SDS011;11878;51.774;7.220;2022-12-07T17:54:10;6.40;;;2.50;;
23410;SDS011;11878;51.774;7.220;2022-12-07T17:57:12;6.83;;;1.83;;
23410;SDS011;11878;51.774;7.220;2022-12-07T18:00:14;5.33;;;2.23;;
23410;SDS011;11878;51.774;7.220;2022-12-07T18:03:16;4.17;;;2.27;;
23410;SDS011;11878;51.774;7.220;2022-12-07T18:06:18;6.27;;;2.17;;
23410;SDS011;11878;51.774;7.220;2022-12-07T18:09:31;4.27;;;1.90;;
23410;SDS011;11878;51.774;7.220;2022-12-07T18:12:34;4.97;;;2.03;;
23410;SDS011;11878;51.774;7.220;2022-12-07T18:15:36;4.67;;;2.07;;
23410;SDS011;11878;51.774;7.220;2022-12-07T18:18:38;4.57;;;2.37;;
23410;SDS011;11878;51.774;7.220;2022-12-07T18:21:41;10.73;;;2.67;;
23410;SDS011;11878;51.774;7.220;2022-12-07T18:24:46;5.73;;;2.43;;
23410;SDS011;11878;51.774;7.220;2022-12-07T18:27:48;5.10;;;2.57;;
23410;SDS011;11878;51.774;7.220;2022-12-07T18:30:50;11.03;;;2.73;;
23410;SDS011;11878;51.774;7.220;2022-12-07T18:34:14;5.17;;;2.93;;
23410;SDS011;11878;51.774;7.220;2022-12-07T18:37:18;6.37;;;2.83;;
23410;SDS011;11878;51.774;7.220;2022-12-07T18:40:20;5.47;;;3.20;;
23410;SDS011;11878;51.774;7.220;2022-12-07T18:43:25;6.60;;;2.23;;
23410;SDS011;11878;51.774;7.220;2022-12-07T18:46:30;4.70;;;2.67;;
23410;SDS011;11878;51.774;7.220;2022-12-07T18:49:41;6.93;;;3.33;;
23410;SDS011;11878;51.774;7.220;2022-12-07T18:53:07;7.70;;;3.23;;
23410;SDS011;11878;51.774;7.220;2022-12-07T18:59:15;6.07;;;2.67;;
23410;SDS011;11878;51.774;7.220;2022-12-07T19:02:46;3.67;;;2.57;;
23410;SDS011;11878;51.774;7.220;2022-12-07T19:05:48;11.67;;;2.60;;
23410;SDS011;11878;51.774;7.220;2022-12-07T19:08:54;5.30;;;2.33;;
23410;SDS011;11878;51.774;7.220;2022-12-07T19:11:57;5.27;;;2.80;;
23410;SDS011;11878;51.774;7.220;2022-12-07T19:15:04;3.53;;;2.30;;
23410;SDS011;11878;51.774;7.220;2022-12-07T19:18:10;7.43;;;2.70;;
23410;SDS011;11878;51.774;7.220;2022-12-07T19:21:12;5.77;;;2.30;;
23410;SDS011;11878;51.774;7.220;2022-12-07T19:24:16;5.63;;;1.87;;
23410;SDS011;11878;51.774;7.220;2022-12-07T19:27:26;4.47;;;1.80;;
23410;SDS011;11878;51.774;7.220;2022-12-07T19:30:48;3.93;;;1.50;;
23410;SDS011;11878;51.774;7.220;2022-12-07T19:33:55;1.50;;;1.40;;
23410;SDS011;11878;51.774;7.220;2022-12-07T19:37:12;2.17;;;1.03;;
23410;SDS011;11878;51.774;7.220;2022-12-07T19:40:49;3.07;;;1.60;;
23410;SDS011;11878;51.774;7.220;2022-12-07T19:44:01;2.73;;;1.20;;
23410;SDS011;11878;51.774;7.220;2022-12-07T19:47:05;2.33;;;1.53;;
23410;SDS011;11878;51.774;7.220;2022-12-07T19:50:11;5.13;;;1.53;;
23410;SDS011;11878;51.774;7.220;2022-12-07T19:53:12;3.90;;;1.70;;
23410;SDS011;11878;51.774;7.220;2022-12-07T19:56:15;2.93;;;1.70;;
23410;SDS011;11878;51.774;7.220;2022-12-07T19:59:25;9.70;;;2.00;;
23410;SDS011;11878;51.774;7.220;2022-12-07T20:02:28;4.57;;;2.30;;
23410;SDS011;11878;51.774;7.220;2022-12-07T20:05:30;5.07;;;2.77;;